createdAt,value
2022-12-06T00:01:48.767Z,101100.27
2022-12-06T00:06:54.932Z,101096.19
2022-12-06T00:12:00.896Z,101086.89
2022-12-06T00:17:06.429Z,101094.28
2022-12-06T00:22:11.862Z,101086.17
2022-12-06T00:27:17.290Z,101090.61
2022-12-06T00:32:22.773Z,101089.75
2022-12-06T00:37:28.217Z,101081.88
2022-12-06T00:42:33.627Z,101074.56
2022-12-06T00:47:39.055Z,101077.45
2022-12-06T00:52:44.489Z,101081.48
2022-12-06T00:57:49.903Z,101086.28
2022-12-06T01:02:55.442Z,101076.27
2022-12-06T01:08:01.337Z,101073.75
2022-12-06T01:13:07.858Z,101083.22
2022-12-06T01:18:13.372Z,101080.70
2022-12-06T01:23:18.760Z,101080.96
2022-12-06T01:28:24.154Z,101078.62
2022-12-06T01:33:29.644Z,101077.70
2022-12-06T01:38:35.448Z,101075.09
2022-12-06T01:43:43.629Z,101070.38
2022-12-06T01:48:52.056Z,101073.16
2022-12-06T01:53:59.363Z,101058.56
2022-12-06T01:59:06.476Z,101054.24
2022-12-06T02:04:11.912Z,101046.23
2022-12-06T02:09:18.556Z,101046.89
2022-12-06T02:14:29.767Z,101045.10
2022-12-06T02:19:44.506Z,101030.70
2022-12-06T02:25:08.305Z,101017.94
2022-12-06T02:30:36.293Z,101012.98
2022-12-06T02:35:44.737Z,101012.67
2022-12-06T02:40:55.868Z,101002.46
2022-12-06T02:46:04.131Z,100999.86
2022-12-06T02:51:12.896Z,101005.12
2022-12-06T02:56:19.655Z,100999.45
2022-12-06T03:01:28.138Z,101006.91
2022-12-06T03:06:48.838Z,101013.14
2022-12-06T03:12:00.912Z,101015.64
2022-12-06T03:17:21.301Z,101012.58
2022-12-06T03:22:29.796Z,101006.45
2022-12-06T03:27:36.842Z,101000.83
2022-12-06T03:32:45.492Z,100990.62
2022-12-06T03:37:53.921Z,100991.64
2022-12-06T03:43:00.222Z,100984.91
2022-12-06T03:48:17.664Z,100984.95
2022-12-06T03:53:23.291Z,100977.58
2022-12-06T03:58:28.684Z,100968.86
2022-12-06T04:03:34.161Z,100962.89
2022-12-06T04:08:41.128Z,100954.45
2022-12-06T04:13:46.675Z,100955.44
2022-12-06T04:18:52.159Z,100961.23
2022-12-06T04:23:57.674Z,100956.13
2022-12-06T04:29:20.826Z,100945.92
2022-12-06T04:34:44.439Z,100944.70
2022-12-06T04:39:50.405Z,100943.88
2022-12-06T04:44:55.853Z,100935.97
2022-12-06T04:50:01.692Z,100931.02
2022-12-06T04:55:24.008Z,100921.37
2022-12-06T05:00:29.507Z,100912.66
2022-12-06T05:05:34.951Z,100907.70
2022-12-06T05:10:41.044Z,100907.09
2022-12-06T05:15:55.138Z,100899.38
2022-12-06T05:21:15.604Z,100905.48
2022-12-06T05:26:23.007Z,100902.58
2022-12-06T05:31:28.956Z,100897.48
2022-12-06T05:36:34.382Z,100907.98
2022-12-06T05:41:39.751Z,100914.72
2022-12-06T05:46:45.132Z,100913.14
2022-12-06T05:51:50.535Z,100899.31
2022-12-06T05:56:55.939Z,100894.83
2022-12-06T06:02:01.482Z,100891.92
2022-12-06T06:07:07.214Z,100896.66
2022-12-06T06:12:12.928Z,100897.73
2022-12-06T06:17:18.556Z,100889.42
2022-12-06T06:22:24.711Z,100888.05
2022-12-06T06:27:31.755Z,100890.84
2022-12-06T06:32:37.926Z,100889.28
2022-12-06T06:37:43.321Z,100895.70
2022-12-06T06:42:48.767Z,100901.06
2022-12-06T06:47:54.133Z,100905.30
2022-12-06T06:52:59.663Z,100914.44
2022-12-06T06:58:06.348Z,100911.58
2022-12-06T07:03:16.660Z,100909.79
2022-12-06T07:08:22.436Z,100911.06
2022-12-06T07:13:28.899Z,100913.61
2022-12-06T07:18:35.252Z,100924.44
2022-12-06T07:23:40.999Z,100922.34
2022-12-06T07:28:47.620Z,100918.98
2022-12-06T07:33:55.806Z,100920.41
2022-12-06T07:39:01.655Z,100915.55
2022-12-06T07:44:25.197Z,100923.53
2022-12-06T07:49:31.417Z,100918.57
2022-12-06T07:54:36.834Z,100915.81
2022-12-06T07:59:42.211Z,100921.58
2022-12-06T08:04:47.984Z,100915.31
2022-12-06T08:09:54.406Z,100905.25
2022-12-06T08:15:00.452Z,100914.45
2022-12-06T08:20:07.469Z,100912.50
2022-12-06T08:25:12.850Z,100915.11
2022-12-06T08:30:18.361Z,100914.03
2022-12-06T08:35:23.885Z,100914.53
2022-12-06T08:40:29.255Z,100917.38
2022-12-06T08:45:35.672Z,100902.19
2022-12-06T08:50:41.123Z,100895.86
2022-12-06T08:56:02.005Z,100898.52
2022-12-06T09:01:02.596Z,100889.67
2022-12-06T09:06:09.215Z,100890.19
2022-12-06T09:11:15.937Z,100897.90
2022-12-06T09:16:25.149Z,100901.17
2022-12-06T09:21:32.005Z,100904.08
2022-12-06T09:26:38.418Z,100901.78
2022-12-06T09:31:43.927Z,100896.36
2022-12-06T09:36:55.448Z,100900.05
2022-12-06T09:42:21.493Z,100886.16
2022-12-06T09:48:03.371Z,100885.80
2022-12-06T09:53:26.702Z,100882.01
2022-12-06T09:59:08.487Z,100876.61
2022-12-06T10:04:24.174Z,100863.39
2022-12-06T10:09:52.739Z,100857.68
2022-12-06T10:15:16.292Z,100851.34
2022-12-06T10:20:36.630Z,100849.16
2022-12-06T10:25:47.749Z,100848.50
2022-12-06T10:30:56.172Z,100854.27
2022-12-06T10:36:07.310Z,100841.92
2022-12-06T10:41:50.483Z,100832.89
2022-12-06T10:47:12.357Z,100829.73
2022-12-06T10:52:42.176Z,100830.48
2022-12-06T10:57:53.773Z,100823.63
2022-12-06T11:03:17.621Z,100818.55
2022-12-06T11:08:35.099Z,100808.22
2022-12-06T11:13:43.528Z,100805.75
2022-12-06T11:18:50.165Z,100806.56
2022-12-06T11:24:07.195Z,100805.59
2022-12-06T11:29:15.954Z,100798.92
2022-12-06T11:34:27.248Z,100803.29
2022-12-06T11:39:34.760Z,100800.52
2022-12-06T11:44:55.280Z,100795.97
2022-12-06T11:50:07.818Z,100788.98
2022-12-06T11:55:20.584Z,100766.59
2022-12-06T12:00:27.466Z,100766.59
2022-12-06T12:05:39.010Z,100766.08
2022-12-06T12:10:46.681Z,100760.83
2022-12-06T12:15:54.378Z,100755.55
2022-12-06T12:21:01.059Z,100752.78
2022-12-06T12:26:14.949Z,100752.55
2022-12-06T12:31:22.802Z,100756.94
2022-12-06T12:36:30.282Z,100755.49
2022-12-06T12:41:44.974Z,100749.98
2022-12-06T12:47:20.438Z,100743.55
2022-12-06T12:52:38.322Z,100737.48
2022-12-06T12:57:46.934Z,100745.14
2022-12-06T13:02:58.405Z,100743.80
2022-12-06T13:08:26.978Z,100744.14
2022-12-06T13:13:47.979Z,100746.46
2022-12-06T13:18:56.483Z,100736.55
2022-12-06T13:24:10.663Z,100724.95
2022-12-06T13:29:43.339Z,100724.95
2022-12-06T13:34:54.300Z,100723.23
2022-12-06T13:40:00.090Z,100728.47
2022-12-06T13:45:08.147Z,100723.36
2022-12-06T13:50:19.444Z,100723.88
2022-12-06T13:55:30.863Z,100712.29
2022-12-06T14:00:45.432Z,100712.29
2022-12-06T14:06:07.411Z,100717.53
2022-12-06T14:11:19.358Z,100712.97
2022-12-06T14:16:46.495Z,100713.48
2022-12-06T14:21:58.681Z,100705.53
2022-12-06T14:27:06.917Z,100712.50
2022-12-06T14:32:12.943Z,100709.39
2022-12-06T14:37:23.529Z,100704.73
2022-12-06T14:42:47.163Z,100699.36
2022-12-06T14:47:52.824Z,100699.36
2022-12-06T14:53:15.662Z,100704.04
2022-12-06T14:58:24.092Z,100704.55
2022-12-06T15:03:32.833Z,100702.58
2022-12-06T15:08:40.321Z,100702.58
2022-12-06T15:13:48.752Z,100698.65
2022-12-06T15:19:01.587Z,100688.80
2022-12-06T15:24:19.255Z,100688.80
2022-12-06T15:29:24.884Z,100684.72
2022-12-06T15:34:32.909Z,100689.52
2022-12-06T15:39:38.439Z,100672.44
2022-12-06T15:44:48.808Z,100683.16
2022-12-06T15:49:52.597Z,100683.16
2022-12-06T15:54:58.065Z,100678.88
2022-12-06T16:00:07.168Z,100674.55
2022-12-06T16:05:15.577Z,100670.61
2022-12-06T16:10:23.227Z,100670.61
2022-12-06T16:15:28.287Z,100675.85
2022-12-06T16:20:34.123Z,100671.98
2022-12-06T16:25:39.785Z,100675.20
2022-12-06T16:30:45.273Z,100678.50
2022-12-06T16:35:54.837Z,100658.16
2022-12-06T16:41:05.242Z,100658.32
2022-12-06T16:46:31.634Z,100658.32
2022-12-06T16:51:37.521Z,100669.41
2022-12-06T16:56:43.445Z,100680.94
2022-12-06T17:01:56.361Z,100680.94
2022-12-06T17:07:02.121Z,100680.80
2022-12-06T17:12:11.111Z,100686.74
2022-12-06T17:17:20.279Z,100684.55
2022-12-06T17:22:26.310Z,100684.39
2022-12-06T17:27:31.897Z,100675.12
2022-12-06T17:32:37.449Z,100688.29
2022-12-06T17:37:42.835Z,100691.86
2022-12-06T17:43:00.303Z,100689.28
2022-12-06T17:48:06.172Z,100684.20
2022-12-06T17:53:11.622Z,100681.33
2022-12-06T17:58:16.995Z,100677.77
2022-12-06T18:03:22.552Z,100670.72
2022-12-06T18:08:27.961Z,100667.36
2022-12-06T18:13:33.744Z,100664.71
2022-12-06T18:18:39.283Z,100670.31
2022-12-06T18:24:19.298Z,100661.77
2022-12-06T18:28:58.445Z,100661.77
2022-12-06T18:34:04.794Z,100665.59
2022-12-06T18:39:14.814Z,100663.03
2022-12-06T18:44:19.866Z,100660.47
2022-12-06T18:49:25.263Z,100657.36
2022-12-06T18:54:30.686Z,100666.88
2022-12-06T18:59:37.727Z,100666.88
2022-12-06T19:04:43.167Z,100654.25
2022-12-06T19:09:48.545Z,100658.45
2022-12-06T19:14:54.095Z,100649.63
2022-12-06T19:19:59.862Z,100650.20
2022-12-06T19:25:06.483Z,100647.04
2022-12-06T19:30:12.912Z,100649.63
2022-12-06T19:35:18.357Z,100644.55
2022-12-06T19:40:23.735Z,100669.80
2022-12-06T19:45:29.203Z,100653.36
2022-12-06T19:50:35.697Z,100658.40
2022-12-06T19:55:44.121Z,100658.40
2022-12-06T20:00:51.112Z,100666.76
2022-12-06T20:06:05.568Z,100655.29
2022-12-06T20:11:14.723Z,100655.95
2022-12-06T20:16:20.214Z,100643.87
2022-12-06T20:21:26.143Z,100653.72
2022-12-06T20:26:33.826Z,100638.77
2022-12-06T20:31:39.815Z,100640.39
2022-12-06T20:36:45.726Z,100642.82
2022-12-06T20:41:51.915Z,100638.49
2022-12-06T20:46:57.578Z,100635.49
2022-12-06T20:52:05.007Z,100632.95
2022-12-06T20:57:10.625Z,100630.69
2022-12-06T21:02:16.148Z,100625.55
2022-12-06T21:07:21.814Z,100620.14
2022-12-06T21:12:27.353Z,100621.27
2022-12-06T21:17:34.283Z,100612.44
2022-12-06T21:22:39.665Z,100610.59
2022-12-06T21:27:45.051Z,100609.44
2022-12-06T21:32:50.505Z,100611.17
2022-12-06T21:37:55.957Z,100605.17
2022-12-06T21:43:01.587Z,100611.00
2022-12-06T21:48:08.378Z,100612.23
2022-12-06T21:53:13.744Z,100619.36
2022-12-06T21:58:19.191Z,100617.62
2022-12-06T22:03:24.778Z,100621.16
2022-12-06T22:08:30.171Z,100607.30
2022-12-06T22:13:36.107Z,100609.32
2022-12-06T22:18:46.014Z,100609.32
2022-12-06T22:23:50.470Z,100617.17
2022-12-06T22:28:56.600Z,100604.88
2022-12-06T22:34:03.127Z,100604.88
2022-12-06T22:39:08.580Z,100604.11
2022-12-06T22:44:14.103Z,100598.14
2022-12-06T22:49:19.543Z,100600.44
2022-12-06T22:54:24.956Z,100593.87
2022-12-06T22:59:30.570Z,100593.87
2022-12-06T23:04:36.096Z,100589.95
2022-12-06T23:09:41.567Z,100587.72
2022-12-06T23:14:46.940Z,100592.16
2022-12-06T23:19:52.312Z,100591.96
2022-12-06T23:24:57.685Z,100586.05
2022-12-06T23:30:03.551Z,100586.46
2022-12-06T23:35:09.926Z,100585.84
2022-12-06T23:40:15.448Z,100590.06
2022-12-06T23:45:20.902Z,100577.29
2022-12-06T23:50:26.281Z,100573.67
2022-12-06T23:55:31.656Z,100573.67
